<?xml version="1.0" encoding="UTF-8" standalone="no" ?>
<gpx xmlns="http://www.topografix.com/GPX/1/1" xmlns:xsi="http://www.w3.org/2001/XMLSchema-instance" xsi:schemaLocation="http://www.topografix.com/GPX/1/1 http://www.topografix.com/GPX/1/1/gpx.xsd" version="1.1" creator="VisuGPX - https://www.visugpx.com">
  <metadata>
    <name>Marche 2022 - 12km</name>
  </metadata>
  <trk>
    <name><![CDATA[14226802-Marche 2022 - 12km]]></name>
    <trkseg>
      <trkpt lat="45.84822" lon="4.52947">
        <ele>426</ele>
        <time>2022-03-20T20:24:26Z</time>
      </trkpt>
      <trkpt lat="45.84817" lon="4.52972">
        <ele>422</ele>
        <time>2022-03-20T20:24:50Z</time>
      </trkpt>
      <trkpt lat="45.84813" lon="4.52985">
        <ele>421</ele>
        <time>2022-03-20T20:25:03Z</time>
      </trkpt>
      <trkpt lat="45.8481" lon="4.52991">
        <ele>420</ele>
        <time>2022-03-20T20:25:10Z</time>
      </trkpt>
      <trkpt lat="45.84803" lon="4.5299">
        <ele>420</ele>
        <time>2022-03-20T20:25:20Z</time>
      </trkpt>
      <trkpt lat="45.84771" lon="4.52968">
        <ele>422</ele>
        <time>2022-03-20T20:26:07Z</time>
      </trkpt>
      <trkpt lat="45.8477" lon="4.52976">
        <ele>421</ele>
        <time>2022-03-20T20:26:15Z</time>
      </trkpt>
      <trkpt lat="45.84772" lon="4.52984">
        <ele>420</ele>
        <time>2022-03-20T20:26:22Z</time>
      </trkpt>
      <trkpt lat="45.8477" lon="4.52993">
        <ele>419</ele>
        <time>2022-03-20T20:26:31Z</time>
      </trkpt>
      <trkpt lat="45.84774" lon="4.53004">
        <ele>417</ele>
        <time>2022-03-20T20:26:43Z</time>
      </trkpt>
      <trkpt lat="45.84765" lon="4.53022">
        <ele>416</ele>
        <time>2022-03-20T20:27:03Z</time>
      </trkpt>
      <trkpt lat="45.84759" lon="4.53028">
        <ele>415</ele>
        <time>2022-03-20T20:27:13Z</time>
      </trkpt>
      <trkpt lat="45.84761" lon="4.53062">
        <ele>412</ele>
        <time>2022-03-20T20:27:45Z</time>
      </trkpt>
      <trkpt lat="45.84829" lon="4.53053">
        <ele>413</ele>
        <time>2022-03-20T20:29:16Z</time>
      </trkpt>
      <trkpt lat="45.84852" lon="4.53042">
        <ele>413</ele>
        <time>2022-03-20T20:29:48Z</time>
      </trkpt>
      <trkpt lat="45.84861" lon="4.53034">
        <ele>413</ele>
        <time>2022-03-20T20:30:02Z</time>
      </trkpt>
      <trkpt lat="45.84881" lon="4.53069">
        <ele>408</ele>
        <time>2022-03-20T20:30:45Z</time>
      </trkpt>
      <trkpt lat="45.84908" lon="4.53125">
        <ele>401</ele>
        <time>2022-03-20T20:31:48Z</time>
      </trkpt>
      <trkpt lat="45.84923" lon="4.53157">
        <ele>397</ele>
        <time>2022-03-20T20:32:24Z</time>
      </trkpt>
      <trkpt lat="45.84925" lon="4.53178">
        <ele>395</ele>
        <time>2022-03-20T20:32:43Z</time>
      </trkpt>
      <trkpt lat="45.84923" lon="4.53191">
        <ele>394</ele>
        <time>2022-03-20T20:32:56Z</time>
      </trkpt>
      <trkpt lat="45.8494" lon="4.53202">
        <ele>392</ele>
        <time>2022-03-20T20:33:21Z</time>
      </trkpt>
      <trkpt lat="45.84963" lon="4.53203">
        <ele>390</ele>
        <time>2022-03-20T20:33:51Z</time>
      </trkpt>
      <trkpt lat="45.84979" lon="4.532">
        <ele>389</ele>
        <time>2022-03-20T20:34:13Z</time>
      </trkpt>
      <trkpt lat="45.84994" lon="4.53194">
        <ele>388</ele>
        <time>2022-03-20T20:34:34Z</time>
      </trkpt>
      <trkpt lat="45.85038" lon="4.5323">
        <ele>381</ele>
        <time>2022-03-20T20:35:41Z</time>
      </trkpt>
      <trkpt lat="45.851" lon="4.53294">
        <ele>375</ele>
        <time>2022-03-20T20:37:23Z</time>
      </trkpt>
      <trkpt lat="45.85109" lon="4.53309">
        <ele>375</ele>
        <time>2022-03-20T20:37:42Z</time>
      </trkpt>
      <trkpt lat="45.85152" lon="4.53295">
        <ele>372</ele>
        <time>2022-03-20T20:38:40Z</time>
      </trkpt>
      <trkpt lat="45.85175" lon="4.53285">
        <ele>370</ele>
        <time>2022-03-20T20:39:12Z</time>
      </trkpt>
      <trkpt lat="45.85216" lon="4.53276">
        <ele>365</ele>
        <time>2022-03-20T20:40:08Z</time>
      </trkpt>
      <trkpt lat="45.85264" lon="4.53256">
        <ele>360</ele>
        <time>2022-03-20T20:41:14Z</time>
      </trkpt>
      <trkpt lat="45.85283" lon="4.53287">
        <ele>358</ele>
        <time>2022-03-20T20:41:53Z</time>
      </trkpt>
      <trkpt lat="45.85323" lon="4.53302">
        <ele>354</ele>
        <time>2022-03-20T20:42:48Z</time>
      </trkpt>
      <trkpt lat="45.85365" lon="4.53318">
        <ele>350</ele>
        <time>2022-03-20T20:43:46Z</time>
      </trkpt>
      <trkpt lat="45.85384" lon="4.53326">
        <ele>349</ele>
        <time>2022-03-20T20:44:12Z</time>
      </trkpt>
      <trkpt lat="45.85422" lon="4.53301">
        <ele>349</ele>
        <time>2022-03-20T20:45:08Z</time>
      </trkpt>
      <trkpt lat="45.85434" lon="4.53311">
        <ele>348</ele>
        <time>2022-03-20T20:45:27Z</time>
      </trkpt>
      <trkpt lat="45.85459" lon="4.53329">
        <ele>347</ele>
        <time>2022-03-20T20:46:04Z</time>
      </trkpt>
      <trkpt lat="45.85495" lon="4.53328">
        <ele>347</ele>
        <time>2022-03-20T20:46:52Z</time>
      </trkpt>
      <trkpt lat="45.85532" lon="4.53336">
        <ele>346</ele>
        <time>2022-03-20T20:47:42Z</time>
      </trkpt>
      <trkpt lat="45.85573" lon="4.53358">
        <ele>343</ele>
        <time>2022-03-20T20:48:40Z</time>
      </trkpt>
      <trkpt lat="45.85608" lon="4.53385">
        <ele>340</ele>
        <time>2022-03-20T20:49:33Z</time>
      </trkpt>
      <trkpt lat="45.85645" lon="4.53415">
        <ele>338</ele>
        <time>2022-03-20T20:50:30Z</time>
      </trkpt>
      <trkpt lat="45.85656" lon="4.53432">
        <ele>337</ele>
        <time>2022-03-20T20:50:52Z</time>
      </trkpt>
      <trkpt lat="45.85663" lon="4.53456">
        <ele>335</ele>
        <time>2022-03-20T20:51:16Z</time>
      </trkpt>
      <trkpt lat="45.85675" lon="4.53459">
        <ele>334</ele>
        <time>2022-03-20T20:51:32Z</time>
      </trkpt>
      <trkpt lat="45.85686" lon="4.53488">
        <ele>332</ele>
        <time>2022-03-20T20:52:03Z</time>
      </trkpt>
      <trkpt lat="45.85707" lon="4.53508">
        <ele>331</ele>
        <time>2022-03-20T20:52:37Z</time>
      </trkpt>
      <trkpt lat="45.857" lon="4.53541">
        <ele>332</ele>
        <time>2022-03-20T20:53:09Z</time>
      </trkpt>
      <trkpt lat="45.85698" lon="4.53568">
        <ele>332</ele>
        <time>2022-03-20T20:53:34Z</time>
      </trkpt>
      <trkpt lat="45.857" lon="4.53589">
        <ele>332</ele>
        <time>2022-03-20T20:53:54Z</time>
      </trkpt>
      <trkpt lat="45.85707" lon="4.53615">
        <ele>332</ele>
        <time>2022-03-20T20:54:19Z</time>
      </trkpt>
      <trkpt lat="45.85725" lon="4.53764">
        <ele>332</ele>
        <time>2022-03-20T20:56:40Z</time>
      </trkpt>
      <trkpt lat="45.85725" lon="4.53839">
        <ele>331</ele>
        <time>2022-03-20T20:57:50Z</time>
      </trkpt>
      <trkpt lat="45.85716" lon="4.53937">
        <ele>331</ele>
        <time>2022-03-20T20:59:22Z</time>
      </trkpt>
      <trkpt lat="45.85705" lon="4.54036">
        <ele>330</ele>
        <time>2022-03-20T21:00:55Z</time>
      </trkpt>
      <trkpt lat="45.85687" lon="4.54143">
        <ele>330</ele>
        <time>2022-03-20T21:02:37Z</time>
      </trkpt>
      <trkpt lat="45.85681" lon="4.5417">
        <ele>330</ele>
        <time>2022-03-20T21:03:03Z</time>
      </trkpt>
      <trkpt lat="45.85659" lon="4.54242">
        <ele>329</ele>
        <time>2022-03-20T21:04:16Z</time>
      </trkpt>
      <trkpt lat="45.85642" lon="4.54309">
        <ele>328</ele>
        <time>2022-03-20T21:05:23Z</time>
      </trkpt>
      <trkpt lat="45.85626" lon="4.54349">
        <ele>328</ele>
        <time>2022-03-20T21:06:06Z</time>
      </trkpt>
      <trkpt lat="45.85601" lon="4.54399">
        <ele>328</ele>
        <time>2022-03-20T21:07:03Z</time>
      </trkpt>
      <trkpt lat="45.85549" lon="4.54435">
        <ele>328</ele>
        <time>2022-03-20T21:08:20Z</time>
      </trkpt>
      <trkpt lat="45.85533" lon="4.54447">
        <ele>328</ele>
        <time>2022-03-20T21:08:44Z</time>
      </trkpt>
      <trkpt lat="45.85475" lon="4.54514">
        <ele>328</ele>
        <time>2022-03-20T21:10:23Z</time>
      </trkpt>
      <trkpt lat="45.8546" lon="4.54538">
        <ele>329</ele>
        <time>2022-03-20T21:10:53Z</time>
      </trkpt>
      <trkpt lat="45.85428" lon="4.54611">
        <ele>330</ele>
        <time>2022-03-20T21:12:13Z</time>
      </trkpt>
      <trkpt lat="45.85413" lon="4.54641">
        <ele>331</ele>
        <time>2022-03-20T21:12:48Z</time>
      </trkpt>
      <trkpt lat="45.85402" lon="4.5466">
        <ele>331</ele>
        <time>2022-03-20T21:13:11Z</time>
      </trkpt>
      <trkpt lat="45.85358" lon="4.54718">
        <ele>330</ele>
        <time>2022-03-20T21:14:30Z</time>
      </trkpt>
      <trkpt lat="45.85341" lon="4.5475">
        <ele>330</ele>
        <time>2022-03-20T21:15:08Z</time>
      </trkpt>
      <trkpt lat="45.85291" lon="4.54821">
        <ele>330</ele>
        <time>2022-03-20T21:16:42Z</time>
      </trkpt>
      <trkpt lat="45.85252" lon="4.54874">
        <ele>330</ele>
        <time>2022-03-20T21:17:53Z</time>
      </trkpt>
      <trkpt lat="45.85229" lon="4.54905">
        <ele>332</ele>
        <time>2022-03-20T21:18:35Z</time>
      </trkpt>
      <trkpt lat="45.85209" lon="4.54948">
        <ele>334</ele>
        <time>2022-03-20T21:19:23Z</time>
      </trkpt>
      <trkpt lat="45.85173" lon="4.55069">
        <ele>335</ele>
        <time>2022-03-20T21:21:26Z</time>
      </trkpt>
      <trkpt lat="45.85152" lon="4.55112">
        <ele>336</ele>
        <time>2022-03-20T21:22:15Z</time>
      </trkpt>
      <trkpt lat="45.85135" lon="4.55192">
        <ele>335</ele>
        <time>2022-03-20T21:23:32Z</time>
      </trkpt>
      <trkpt lat="45.85081" lon="4.55298">
        <ele>338</ele>
        <time>2022-03-20T21:25:34Z</time>
      </trkpt>
      <trkpt lat="45.84979" lon="4.55327">
        <ele>345</ele>
        <time>2022-03-20T21:27:53Z</time>
      </trkpt>
      <trkpt lat="45.84833" lon="4.55342">
        <ele>343</ele>
        <time>2022-03-20T21:31:08Z</time>
      </trkpt>
      <trkpt lat="45.84793" lon="4.55344">
        <ele>342</ele>
        <time>2022-03-20T21:32:02Z</time>
      </trkpt>
      <trkpt lat="45.84758" lon="4.5536">
        <ele>339</ele>
        <time>2022-03-20T21:32:51Z</time>
      </trkpt>
      <trkpt lat="45.84705" lon="4.55366">
        <ele>341</ele>
        <time>2022-03-20T21:34:02Z</time>
      </trkpt>
      <trkpt lat="45.8462" lon="4.55412">
        <ele>341</ele>
        <time>2022-03-20T21:36:03Z</time>
      </trkpt>
      <trkpt lat="45.84609" lon="4.55411">
        <ele>342</ele>
        <time>2022-03-20T21:36:18Z</time>
      </trkpt>
      <trkpt lat="45.84581" lon="4.55419">
        <ele>343</ele>
        <time>2022-03-20T21:36:56Z</time>
      </trkpt>
      <trkpt lat="45.84554" lon="4.55399">
        <ele>340</ele>
        <time>2022-03-20T21:37:36Z</time>
      </trkpt>
      <trkpt lat="45.84503" lon="4.55341">
        <ele>336</ele>
        <time>2022-03-20T21:39:03Z</time>
      </trkpt>
      <trkpt lat="45.84458" lon="4.55263">
        <ele>333</ele>
        <time>2022-03-20T21:40:37Z</time>
      </trkpt>
      <trkpt lat="45.84439" lon="4.55235">
        <ele>332</ele>
        <time>2022-03-20T21:41:14Z</time>
      </trkpt>
      <trkpt lat="45.84407" lon="4.55211">
        <ele>332</ele>
        <time>2022-03-20T21:42:02Z</time>
      </trkpt>
      <trkpt lat="45.84387" lon="4.5527">
        <ele>333</ele>
        <time>2022-03-20T21:43:03Z</time>
      </trkpt>
      <trkpt lat="45.8437" lon="4.55322">
        <ele>334</ele>
        <time>2022-03-20T21:43:56Z</time>
      </trkpt>
      <trkpt lat="45.84355" lon="4.55373">
        <ele>335</ele>
        <time>2022-03-20T21:44:48Z</time>
      </trkpt>
      <trkpt lat="45.84328" lon="4.554">
        <ele>339</ele>
        <time>2022-03-20T21:45:32Z</time>
      </trkpt>
      <trkpt lat="45.84283" lon="4.5544">
        <ele>343</ele>
        <time>2022-03-20T21:46:42Z</time>
      </trkpt>
      <trkpt lat="45.84261" lon="4.55483">
        <ele>345</ele>
        <time>2022-03-20T21:47:32Z</time>
      </trkpt>
      <trkpt lat="45.84234" lon="4.55507">
        <ele>347</ele>
        <time>2022-03-20T21:48:14Z</time>
      </trkpt>
      <trkpt lat="45.842" lon="4.55505">
        <ele>350</ele>
        <time>2022-03-20T21:49:00Z</time>
      </trkpt>
      <trkpt lat="45.84088" lon="4.55478">
        <ele>353</ele>
        <time>2022-03-20T21:51:31Z</time>
      </trkpt>
      <trkpt lat="45.84033" lon="4.55482">
        <ele>350</ele>
        <time>2022-03-20T21:52:45Z</time>
      </trkpt>
      <trkpt lat="45.84014" lon="4.55474">
        <ele>350</ele>
        <time>2022-03-20T21:53:11Z</time>
      </trkpt>
      <trkpt lat="45.83992" lon="4.55492">
        <ele>346</ele>
        <time>2022-03-20T21:53:45Z</time>
      </trkpt>
      <trkpt lat="45.83919" lon="4.555">
        <ele>337</ele>
        <time>2022-03-20T21:55:23Z</time>
      </trkpt>
      <trkpt lat="45.83854" lon="4.55455">
        <ele>338</ele>
        <time>2022-03-20T21:56:59Z</time>
      </trkpt>
      <trkpt lat="45.83841" lon="4.55537">
        <ele>336</ele>
        <time>2022-03-20T21:58:17Z</time>
      </trkpt>
      <trkpt lat="45.83846" lon="4.55624">
        <ele>332</ele>
        <time>2022-03-20T21:59:38Z</time>
      </trkpt>
      <trkpt lat="45.83829" lon="4.5565">
        <ele>333</ele>
        <time>2022-03-20T22:00:11Z</time>
      </trkpt>
      <trkpt lat="45.83867" lon="4.55755">
        <ele>331</ele>
        <time>2022-03-20T22:02:01Z</time>
      </trkpt>
      <trkpt lat="45.83696" lon="4.55662">
        <ele>352</ele>
        <time>2022-03-20T22:06:05Z</time>
      </trkpt>
      <trkpt lat="45.83625" lon="4.55628">
        <ele>359</ele>
        <time>2022-03-20T22:07:45Z</time>
      </trkpt>
      <trkpt lat="45.83553" lon="4.55602">
        <ele>366</ele>
        <time>2022-03-20T22:09:24Z</time>
      </trkpt>
      <trkpt lat="45.83538" lon="4.55605">
        <ele>368</ele>
        <time>2022-03-20T22:09:45Z</time>
      </trkpt>
      <trkpt lat="45.83471" lon="4.55537">
        <ele>374</ele>
        <time>2022-03-20T22:11:34Z</time>
      </trkpt>
      <trkpt lat="45.83452" lon="4.55515">
        <ele>375</ele>
        <time>2022-03-20T22:12:07Z</time>
      </trkpt>
      <trkpt lat="45.8344" lon="4.55482">
        <ele>378</ele>
        <time>2022-03-20T22:12:41Z</time>
      </trkpt>
      <trkpt lat="45.83422" lon="4.55455">
        <ele>382</ele>
        <time>2022-03-20T22:13:16Z</time>
      </trkpt>
      <trkpt lat="45.834" lon="4.55453">
        <ele>385</ele>
        <time>2022-03-20T22:13:45Z</time>
      </trkpt>
      <trkpt lat="45.83393" lon="4.55519">
        <ele>384</ele>
        <time>2022-03-20T22:14:48Z</time>
      </trkpt>
      <trkpt lat="45.83397" lon="4.55636">
        <ele>392</ele>
        <time>2022-03-20T22:16:36Z</time>
      </trkpt>
      <trkpt lat="45.8336" lon="4.55644">
        <ele>397</ele>
        <time>2022-03-20T22:17:26Z</time>
      </trkpt>
      <trkpt lat="45.83339" lon="4.5564">
        <ele>400</ele>
        <time>2022-03-20T22:17:55Z</time>
      </trkpt>
      <trkpt lat="45.8332" lon="4.55613">
        <ele>402</ele>
        <time>2022-03-20T22:18:30Z</time>
      </trkpt>
      <trkpt lat="45.83303" lon="4.55574">
        <ele>404</ele>
        <time>2022-03-20T22:19:13Z</time>
      </trkpt>
      <trkpt lat="45.83275" lon="4.55533">
        <ele>409</ele>
        <time>2022-03-20T22:20:06Z</time>
      </trkpt>
      <trkpt lat="45.83263" lon="4.555">
        <ele>409</ele>
        <time>2022-03-20T22:20:41Z</time>
      </trkpt>
      <trkpt lat="45.83246" lon="4.55476">
        <ele>411</ele>
        <time>2022-03-20T22:21:13Z</time>
      </trkpt>
      <trkpt lat="45.83223" lon="4.55435">
        <ele>414</ele>
        <time>2022-03-20T22:22:02Z</time>
      </trkpt>
      <trkpt lat="45.83209" lon="4.55418">
        <ele>416</ele>
        <time>2022-03-20T22:22:26Z</time>
      </trkpt>
      <trkpt lat="45.83204" lon="4.55448">
        <ele>420</ele>
        <time>2022-03-20T22:22:55Z</time>
      </trkpt>
      <trkpt lat="45.83219" lon="4.55488">
        <ele>419</ele>
        <time>2022-03-20T22:23:37Z</time>
      </trkpt>
      <trkpt lat="45.83227" lon="4.55538">
        <ele>421</ele>
        <time>2022-03-20T22:24:25Z</time>
      </trkpt>
      <trkpt lat="45.83202" lon="4.55531">
        <ele>427</ele>
        <time>2022-03-20T22:24:59Z</time>
      </trkpt>
      <trkpt lat="45.83184" lon="4.55518">
        <ele>430</ele>
        <time>2022-03-20T22:25:26Z</time>
      </trkpt>
      <trkpt lat="45.83161" lon="4.55501">
        <ele>435</ele>
        <time>2022-03-20T22:26:00Z</time>
      </trkpt>
      <trkpt lat="45.83146" lon="4.55481">
        <ele>437</ele>
        <time>2022-03-20T22:26:28Z</time>
      </trkpt>
      <trkpt lat="45.83131" lon="4.55468">
        <ele>440</ele>
        <time>2022-03-20T22:26:51Z</time>
      </trkpt>
      <trkpt lat="45.83112" lon="4.55454">
        <ele>444</ele>
        <time>2022-03-20T22:27:20Z</time>
      </trkpt>
      <trkpt lat="45.83094" lon="4.55437">
        <ele>448</ele>
        <time>2022-03-20T22:27:48Z</time>
      </trkpt>
      <trkpt lat="45.83077" lon="4.55372">
        <ele>451</ele>
        <time>2022-03-20T22:28:53Z</time>
      </trkpt>
      <trkpt lat="45.8306" lon="4.55337">
        <ele>453</ele>
        <time>2022-03-20T22:29:33Z</time>
      </trkpt>
      <trkpt lat="45.83066" lon="4.55415">
        <ele>453</ele>
        <time>2022-03-20T22:30:46Z</time>
      </trkpt>
      <trkpt lat="45.83089" lon="4.555">
        <ele>454</ele>
        <time>2022-03-20T22:32:10Z</time>
      </trkpt>
      <trkpt lat="45.8313" lon="4.55604">
        <ele>451</ele>
        <time>2022-03-20T22:34:01Z</time>
      </trkpt>
      <trkpt lat="45.83153" lon="4.5567">
        <ele>449</ele>
        <time>2022-03-20T22:35:10Z</time>
      </trkpt>
      <trkpt lat="45.83169" lon="4.55773">
        <ele>452</ele>
        <time>2022-03-20T22:36:48Z</time>
      </trkpt>
      <trkpt lat="45.83212" lon="4.55894">
        <ele>458</ele>
        <time>2022-03-20T22:38:54Z</time>
      </trkpt>
      <trkpt lat="45.8323" lon="4.55975">
        <ele>462</ele>
        <time>2022-03-20T22:40:14Z</time>
      </trkpt>
      <trkpt lat="45.83254" lon="4.56079">
        <ele>459</ele>
        <time>2022-03-20T22:41:55Z</time>
      </trkpt>
      <trkpt lat="45.83255" lon="4.56145">
        <ele>460</ele>
        <time>2022-03-20T22:42:57Z</time>
      </trkpt>
      <trkpt lat="45.83232" lon="4.56193">
        <ele>460</ele>
        <time>2022-03-20T22:43:51Z</time>
      </trkpt>
      <trkpt lat="45.83196" lon="4.56234">
        <ele>460</ele>
        <time>2022-03-20T22:44:52Z</time>
      </trkpt>
      <trkpt lat="45.83155" lon="4.56296">
        <ele>456</ele>
        <time>2022-03-20T22:46:12Z</time>
      </trkpt>
      <trkpt lat="45.83125" lon="4.56354">
        <ele>451</ele>
        <time>2022-03-20T22:47:19Z</time>
      </trkpt>
      <trkpt lat="45.83102" lon="4.56489">
        <ele>446</ele>
        <time>2022-03-20T22:49:28Z</time>
      </trkpt>
      <trkpt lat="45.8309" lon="4.56539">
        <ele>443</ele>
        <time>2022-03-20T22:50:17Z</time>
      </trkpt>
      <trkpt lat="45.8306" lon="4.56541">
        <ele>444</ele>
        <time>2022-03-20T22:50:57Z</time>
      </trkpt>
      <trkpt lat="45.83018" lon="4.56522">
        <ele>450</ele>
        <time>2022-03-20T22:51:56Z</time>
      </trkpt>
      <trkpt lat="45.82954" lon="4.56487">
        <ele>452</ele>
        <time>2022-03-20T22:53:28Z</time>
      </trkpt>
      <trkpt lat="45.82855" lon="4.56387">
        <ele>453</ele>
        <time>2022-03-20T22:56:09Z</time>
      </trkpt>
      <trkpt lat="45.82795" lon="4.56346">
        <ele>448</ele>
        <time>2022-03-20T22:57:38Z</time>
      </trkpt>
      <trkpt lat="45.82785" lon="4.56258">
        <ele>454</ele>
        <time>2022-03-20T22:59:01Z</time>
      </trkpt>
      <trkpt lat="45.82794" lon="4.56166">
        <ele>459</ele>
        <time>2022-03-20T23:00:27Z</time>
      </trkpt>
      <trkpt lat="45.82808" lon="4.56078">
        <ele>460</ele>
        <time>2022-03-20T23:01:51Z</time>
      </trkpt>
      <trkpt lat="45.82746" lon="4.55997">
        <ele>442</ele>
        <time>2022-03-20T23:03:43Z</time>
      </trkpt>
      <trkpt lat="45.82799" lon="4.55885">
        <ele>449</ele>
        <time>2022-03-20T23:05:49Z</time>
      </trkpt>
      <trkpt lat="45.82845" lon="4.5579">
        <ele>454</ele>
        <time>2022-03-20T23:07:36Z</time>
      </trkpt>
      <trkpt lat="45.82878" lon="4.55709">
        <ele>461</ele>
        <time>2022-03-20T23:09:04Z</time>
      </trkpt>
      <trkpt lat="45.82913" lon="4.55662">
        <ele>466</ele>
        <time>2022-03-20T23:10:08Z</time>
      </trkpt>
      <trkpt lat="45.82969" lon="4.55636">
        <ele>469</ele>
        <time>2022-03-20T23:11:26Z</time>
      </trkpt>
      <trkpt lat="45.83011" lon="4.55595">
        <ele>469</ele>
        <time>2022-03-20T23:12:34Z</time>
      </trkpt>
      <trkpt lat="45.83028" lon="4.55547">
        <ele>466</ele>
        <time>2022-03-20T23:13:24Z</time>
      </trkpt>
      <trkpt lat="45.83027" lon="4.55395">
        <ele>459</ele>
        <time>2022-03-20T23:15:45Z</time>
      </trkpt>
      <trkpt lat="45.83017" lon="4.55309">
        <ele>456</ele>
        <time>2022-03-20T23:17:06Z</time>
      </trkpt>
      <trkpt lat="45.83047" lon="4.55292">
        <ele>453</ele>
        <time>2022-03-20T23:17:49Z</time>
      </trkpt>
      <trkpt lat="45.83149" lon="4.55051">
        <ele>456</ele>
        <time>2022-03-20T23:22:12Z</time>
      </trkpt>
      <trkpt lat="45.83174" lon="4.54974">
        <ele>462</ele>
        <time>2022-03-20T23:23:31Z</time>
      </trkpt>
      <trkpt lat="45.83176" lon="4.5493">
        <ele>466</ele>
        <time>2022-03-20T23:24:12Z</time>
      </trkpt>
      <trkpt lat="45.83208" lon="4.54795">
        <ele>471</ele>
        <time>2022-03-20T23:26:24Z</time>
      </trkpt>
      <trkpt lat="45.83273" lon="4.54695">
        <ele>467</ele>
        <time>2022-03-20T23:28:31Z</time>
      </trkpt>
      <trkpt lat="45.83287" lon="4.54658">
        <ele>464</ele>
        <time>2022-03-20T23:29:10Z</time>
      </trkpt>
      <trkpt lat="45.83294" lon="4.54609">
        <ele>460</ele>
        <time>2022-03-20T23:29:57Z</time>
      </trkpt>
      <trkpt lat="45.83285" lon="4.54577">
        <ele>459</ele>
        <time>2022-03-20T23:30:29Z</time>
      </trkpt>
      <trkpt lat="45.83274" lon="4.54543">
        <ele>459</ele>
        <time>2022-03-20T23:31:04Z</time>
      </trkpt>
      <trkpt lat="45.83264" lon="4.54497">
        <ele>458</ele>
        <time>2022-03-20T23:31:49Z</time>
      </trkpt>
      <trkpt lat="45.83275" lon="4.54445">
        <ele>459</ele>
        <time>2022-03-20T23:32:39Z</time>
      </trkpt>
      <trkpt lat="45.83315" lon="4.5435">
        <ele>459</ele>
        <time>2022-03-20T23:34:22Z</time>
      </trkpt>
      <trkpt lat="45.83331" lon="4.54231">
        <ele>463</ele>
        <time>2022-03-20T23:36:15Z</time>
      </trkpt>
      <trkpt lat="45.83337" lon="4.54086">
        <ele>466</ele>
        <time>2022-03-20T23:38:30Z</time>
      </trkpt>
      <trkpt lat="45.83348" lon="4.54051">
        <ele>465</ele>
        <time>2022-03-20T23:39:06Z</time>
      </trkpt>
      <trkpt lat="45.83384" lon="4.54013">
        <ele>464</ele>
        <time>2022-03-20T23:40:06Z</time>
      </trkpt>
      <trkpt lat="45.83424" lon="4.53967">
        <ele>467</ele>
        <time>2022-03-20T23:41:14Z</time>
      </trkpt>
      <trkpt lat="45.83468" lon="4.53857">
        <ele>469</ele>
        <time>2022-03-20T23:43:12Z</time>
      </trkpt>
      <trkpt lat="45.83532" lon="4.5368">
        <ele>470</ele>
        <time>2022-03-20T23:46:17Z</time>
      </trkpt>
      <trkpt lat="45.83572" lon="4.53604">
        <ele>477</ele>
        <time>2022-03-20T23:47:46Z</time>
      </trkpt>
      <trkpt lat="45.83569" lon="4.53562">
        <ele>482</ele>
        <time>2022-03-20T23:48:25Z</time>
      </trkpt>
      <trkpt lat="45.8352" lon="4.53453">
        <ele>495</ele>
        <time>2022-03-20T23:50:26Z</time>
      </trkpt>
      <trkpt lat="45.83563" lon="4.53436">
        <ele>508</ele>
        <time>2022-03-20T23:51:25Z</time>
      </trkpt>
      <trkpt lat="45.83579" lon="4.53444">
        <ele>509</ele>
        <time>2022-03-20T23:51:48Z</time>
      </trkpt>
      <trkpt lat="45.83586" lon="4.53435">
        <ele>513</ele>
        <time>2022-03-20T23:52:00Z</time>
      </trkpt>
      <trkpt lat="45.83576" lon="4.53348">
        <ele>519</ele>
        <time>2022-03-20T23:53:22Z</time>
      </trkpt>
      <trkpt lat="45.83652" lon="4.53366">
        <ele>530</ele>
        <time>2022-03-20T23:55:05Z</time>
      </trkpt>
      <trkpt lat="45.83687" lon="4.53342">
        <ele>537</ele>
        <time>2022-03-20T23:55:57Z</time>
      </trkpt>
      <trkpt lat="45.83738" lon="4.5333">
        <ele>548</ele>
        <time>2022-03-20T23:57:06Z</time>
      </trkpt>
      <trkpt lat="45.83787" lon="4.53328">
        <ele>556</ele>
        <time>2022-03-20T23:58:11Z</time>
      </trkpt>
      <trkpt lat="45.83822" lon="4.53313">
        <ele>562</ele>
        <time>2022-03-20T23:59:00Z</time>
      </trkpt>
      <trkpt lat="45.83874" lon="4.5326">
        <ele>561</ele>
        <time>2022-03-21T00:00:25Z</time>
      </trkpt>
      <trkpt lat="45.83886" lon="4.53341">
        <ele>567</ele>
        <time>2022-03-21T00:01:42Z</time>
      </trkpt>
      <trkpt lat="45.83912" lon="4.53426">
        <ele>580</ele>
        <time>2022-03-21T00:03:08Z</time>
      </trkpt>
      <trkpt lat="45.83922" lon="4.53488">
        <ele>587</ele>
        <time>2022-03-21T00:04:08Z</time>
      </trkpt>
      <trkpt lat="45.83936" lon="4.53514">
        <ele>584</ele>
        <time>2022-03-21T00:04:38Z</time>
      </trkpt>
      <trkpt lat="45.8392" lon="4.53448">
        <ele>583</ele>
        <time>2022-03-21T00:05:43Z</time>
      </trkpt>
      <trkpt lat="45.83899" lon="4.53385">
        <ele>573</ele>
        <time>2022-03-21T00:06:48Z</time>
      </trkpt>
      <trkpt lat="45.83876" lon="4.5328">
        <ele>562</ele>
        <time>2022-03-21T00:08:30Z</time>
      </trkpt>
      <trkpt lat="45.83885" lon="4.53239">
        <ele>559</ele>
        <time>2022-03-21T00:09:10Z</time>
      </trkpt>
      <trkpt lat="45.83909" lon="4.53137">
        <ele>557</ele>
        <time>2022-03-21T00:10:50Z</time>
      </trkpt>
      <trkpt lat="45.83911" lon="4.53089">
        <ele>556</ele>
        <time>2022-03-21T00:11:35Z</time>
      </trkpt>
      <trkpt lat="45.83952" lon="4.52893">
        <ele>567</ele>
        <time>2022-03-21T00:14:45Z</time>
      </trkpt>
      <trkpt lat="45.83955" lon="4.52797">
        <ele>568</ele>
        <time>2022-03-21T00:16:15Z</time>
      </trkpt>
      <trkpt lat="45.83998" lon="4.5254">
        <ele>563</ele>
        <time>2022-03-21T00:20:20Z</time>
      </trkpt>
      <trkpt lat="45.84033" lon="4.52467">
        <ele>558</ele>
        <time>2022-03-21T00:21:43Z</time>
      </trkpt>
      <trkpt lat="45.8408" lon="4.52505">
        <ele>554</ele>
        <time>2022-03-21T00:22:55Z</time>
      </trkpt>
      <trkpt lat="45.84183" lon="4.52506">
        <ele>537</ele>
        <time>2022-03-21T00:25:12Z</time>
      </trkpt>
      <trkpt lat="45.84362" lon="4.52738">
        <ele>465</ele>
        <time>2022-03-21T00:30:34Z</time>
      </trkpt>
      <trkpt lat="45.84471" lon="4.52852">
        <ele>439</ele>
        <time>2022-03-21T00:33:34Z</time>
      </trkpt>
      <trkpt lat="45.84568" lon="4.52893">
        <ele>431</ele>
        <time>2022-03-21T00:35:49Z</time>
      </trkpt>
      <trkpt lat="45.84629" lon="4.52903">
        <ele>430</ele>
        <time>2022-03-21T00:37:11Z</time>
      </trkpt>
      <trkpt lat="45.84666" lon="4.52916">
        <ele>427</ele>
        <time>2022-03-21T00:38:02Z</time>
      </trkpt>
      <trkpt lat="45.8468" lon="4.52952">
        <ele>423</ele>
        <time>2022-03-21T00:38:40Z</time>
      </trkpt>
      <trkpt lat="45.84737" lon="4.52943">
        <ele>426</ele>
        <time>2022-03-21T00:39:57Z</time>
      </trkpt>
      <trkpt lat="45.84768" lon="4.52966">
        <ele>423</ele>
        <time>2022-03-21T00:40:43Z</time>
      </trkpt>
      <trkpt lat="45.84801" lon="4.52988">
        <ele>420</ele>
        <time>2022-03-21T00:41:32Z</time>
      </trkpt>
      <trkpt lat="45.84809" lon="4.52988">
        <ele>420</ele>
        <time>2022-03-21T00:41:42Z</time>
      </trkpt>
      <trkpt lat="45.84812" lon="4.52982">
        <ele>421</ele>
        <time>2022-03-21T00:41:49Z</time>
      </trkpt>
      <trkpt lat="45.8482" lon="4.52946">
        <ele>426</ele>
        <time>2022-03-21T00:42:24Z</time>
      </trkpt>
    </trkseg>
  </trk>
</gpx>